createdAt,value
2017-11-12T00:01:21.704Z,3.23
2017-11-12T00:03:50.451Z,4.40
2017-11-12T00:06:18.082Z,2.33
2017-11-12T00:08:46.446Z,4.30
2017-11-12T00:11:14.045Z,4.07
2017-11-12T00:13:41.694Z,2.60
2017-11-12T00:16:09.301Z,4.93
2017-11-12T00:18:36.914Z,3.90
2017-11-12T00:21:04.541Z,4.87
2017-11-12T00:23:32.139Z,9.33
2017-11-12T00:25:59.839Z,7.03
2017-11-12T00:28:27.462Z,6.50
2017-11-12T00:30:55.168Z,5.67
2017-11-12T00:33:22.786Z,6.10
2017-11-12T00:35:50.428Z,3.83
2017-11-12T00:38:18.809Z,5.70
2017-11-12T00:40:47.166Z,5.73
2017-11-12T00:43:14.806Z,6.30
2017-11-12T00:45:42.422Z,8.43
2017-11-12T00:48:10.015Z,10.40
2017-11-12T00:50:37.643Z,3.60
2017-11-12T00:53:05.246Z,9.70
2017-11-12T00:55:32.845Z,6.67
2017-11-12T00:58:01.249Z,5.37
2017-11-12T01:00:28.863Z,5.10
2017-11-12T01:02:56.466Z,11.37
2017-11-12T01:05:24.871Z,5.60
2017-11-12T01:07:52.469Z,5.87
2017-11-12T01:10:20.071Z,10.93
2017-11-12T01:12:47.695Z,5.83
2017-11-12T01:15:15.298Z,6.83
2017-11-12T01:17:42.898Z,6.23
2017-11-12T01:20:10.537Z,5.87
2017-11-12T01:22:38.394Z,5.10
2017-11-12T01:25:05.989Z,4.63
2017-11-12T01:27:33.634Z,10.60
2017-11-12T01:30:01.263Z,5.33
2017-11-12T01:32:28.856Z,7.20
2017-11-12T01:34:56.490Z,5.10
2017-11-12T01:37:24.183Z,4.43
2017-11-12T01:39:51.779Z,5.30
2017-11-12T01:42:19.403Z,3.90
2017-11-12T01:44:47.000Z,3.73
2017-11-12T01:47:15.359Z,3.10
2017-11-12T01:49:42.979Z,8.03
2017-11-12T01:52:10.588Z,5.00
2017-11-12T01:54:38.990Z,5.07
2017-11-12T01:57:07.360Z,4.00
2017-11-12T01:59:35.740Z,5.27
2017-11-12T02:02:04.152Z,3.40
2017-11-12T02:04:31.756Z,3.87
2017-11-12T02:06:59.357Z,5.50
2017-11-12T02:09:27.763Z,4.33
2017-11-12T02:11:55.352Z,5.07
2017-11-12T02:14:22.937Z,3.77
2017-11-12T02:16:51.353Z,5.10
2017-11-12T02:19:18.963Z,7.20
2017-11-12T02:21:46.602Z,3.33
2017-11-12T02:24:14.242Z,4.40
2017-11-12T02:26:41.857Z,4.60
2017-11-12T02:29:09.484Z,2.77
2017-11-12T02:31:37.123Z,10.00
2017-11-12T02:34:04.733Z,5.73
2017-11-12T02:36:32.382Z,3.33
2017-11-12T02:38:59.991Z,4.73
2017-11-12T02:41:27.593Z,5.23
2017-11-12T02:43:55.235Z,6.00
2017-11-12T02:46:22.838Z,2.43
2017-11-12T02:48:50.498Z,5.97
2017-11-12T02:51:18.090Z,4.20
2017-11-12T02:53:46.472Z,3.30
2017-11-12T02:56:14.138Z,6.30
2017-11-12T02:58:41.737Z,9.53
2017-11-12T03:01:09.355Z,8.13
2017-11-12T03:03:36.953Z,8.40
2017-11-12T03:06:04.545Z,8.90
2017-11-12T03:08:32.162Z,3.53
2017-11-12T03:10:59.756Z,3.83
2017-11-12T03:13:27.402Z,3.33
2017-11-12T03:15:54.998Z,5.40
2017-11-12T03:18:23.361Z,4.00
2017-11-12T03:20:50.987Z,3.70
2017-11-12T03:23:18.588Z,4.30
2017-11-12T03:25:46.256Z,7.53
2017-11-12T03:28:14.686Z,4.27
2017-11-12T03:30:42.275Z,3.70
2017-11-12T03:33:09.904Z,5.83
2017-11-12T03:35:37.493Z,7.20
2017-11-12T03:38:05.521Z,3.50
2017-11-12T03:40:33.119Z,5.60
2017-11-12T03:43:00.711Z,2.43
2017-11-12T03:45:29.088Z,3.93
2017-11-12T03:47:56.684Z,4.00
2017-11-12T03:50:24.345Z,5.50
2017-11-12T03:52:51.941Z,3.03
2017-11-12T03:55:19.529Z,4.13
2017-11-12T03:57:47.260Z,2.70
2017-11-12T04:00:14.882Z,4.30
2017-11-12T04:02:42.526Z,3.00
2017-11-12T04:05:10.876Z,6.60
2017-11-12T04:07:38.488Z,4.13
2017-11-12T04:10:06.114Z,4.43
2017-11-12T04:12:34.489Z,7.20
2017-11-12T04:15:02.149Z,2.93
2017-11-12T04:17:29.740Z,7.80
2017-11-12T04:19:57.347Z,5.27
2017-11-12T04:22:24.972Z,2.40
2017-11-12T04:24:52.574Z,4.90
2017-11-12T04:27:20.211Z,3.13
2017-11-12T04:29:47.799Z,4.23
2017-11-12T04:32:15.381Z,8.40
2017-11-12T04:34:43.774Z,1.93
2017-11-12T04:37:11.378Z,2.00
2017-11-12T04:39:39.015Z,4.10
2017-11-12T04:42:06.614Z,3.70
2017-11-12T04:44:34.201Z,2.90
2017-11-12T04:47:02.584Z,3.40
2017-11-12T04:49:30.938Z,2.70
2017-11-12T04:51:58.573Z,3.90
2017-11-12T04:54:26.167Z,3.30
2017-11-12T04:56:53.785Z,2.30
2017-11-12T04:59:21.413Z,5.40
2017-11-12T05:01:49.779Z,4.13
2017-11-12T05:04:18.169Z,3.40
2017-11-12T05:06:46.531Z,4.33
2017-11-12T05:09:14.123Z,2.70
2017-11-12T05:11:41.739Z,3.70
2017-11-12T05:14:09.343Z,3.20
2017-11-12T05:16:36.967Z,3.20
2017-11-12T05:19:04.562Z,3.70
2017-11-12T05:21:32.203Z,5.90
2017-11-12T05:24:00.567Z,3.93
2017-11-12T05:26:28.975Z,6.77
2017-11-12T05:28:57.374Z,2.20
2017-11-12T05:31:24.960Z,9.27
2017-11-12T05:33:52.581Z,3.73
2017-11-12T05:36:20.166Z,5.97
2017-11-12T05:38:47.798Z,4.70
2017-11-12T05:41:16.165Z,5.50
2017-11-12T05:43:44.523Z,2.60
2017-11-12T05:46:12.931Z,3.23
2017-11-12T05:48:41.289Z,5.60
2017-11-12T05:51:08.915Z,1.70
2017-11-12T05:53:36.528Z,8.20
2017-11-12T05:56:04.879Z,6.47
2017-11-12T05:58:32.523Z,4.80
2017-11-12T06:01:00.121Z,3.60
2017-11-12T06:03:28.521Z,3.10
2017-11-12T06:05:56.117Z,3.30
2017-11-12T06:08:23.718Z,8.23
2017-11-12T06:10:52.147Z,2.70
2017-11-12T06:13:19.751Z,5.23
2017-11-12T06:15:47.383Z,5.80
2017-11-12T06:18:15.000Z,4.20
2017-11-12T06:20:42.601Z,7.33
2017-11-12T06:23:10.222Z,3.43
2017-11-12T06:25:37.826Z,4.83
2017-11-12T06:28:05.454Z,4.17
2017-11-12T06:30:33.046Z,5.03
2017-11-12T06:33:00.717Z,5.43
2017-11-12T06:35:28.327Z,5.80
2017-11-12T06:37:55.942Z,3.70
2017-11-12T06:40:23.529Z,6.60
2017-11-12T06:42:51.890Z,2.40
2017-11-12T06:45:19.510Z,6.97
2017-11-12T06:47:47.102Z,6.60
2017-11-12T06:50:15.502Z,5.07
2017-11-12T06:52:43.857Z,6.63
2017-11-12T06:55:12.234Z,7.63
2017-11-12T06:57:40.628Z,6.00
2017-11-12T07:00:08.222Z,9.03
2017-11-12T07:02:37.229Z,4.10
2017-11-12T07:05:04.842Z,7.67
2017-11-12T07:07:33.255Z,7.07
2017-11-12T07:10:00.874Z,8.90
2017-11-12T07:12:29.982Z,16.37
2017-11-12T07:14:57.613Z,9.80
2017-11-12T07:17:25.368Z,8.20
2017-11-12T07:19:53.037Z,7.27
2017-11-12T07:22:20.630Z,6.43
2017-11-12T07:24:48.232Z,8.20
2017-11-12T07:27:15.853Z,8.20
2017-11-12T07:29:43.452Z,7.57
2017-11-12T07:32:11.182Z,7.50
2017-11-12T07:34:39.539Z,9.90
2017-11-12T07:37:07.920Z,11.23
2017-11-12T07:39:37.071Z,6.20
2017-11-12T07:42:04.657Z,7.97
2017-11-12T07:44:32.275Z,8.00
2017-11-12T07:46:59.887Z,9.73
2017-11-12T07:49:27.498Z,5.87
2017-11-12T07:51:55.250Z,8.47
2017-11-12T07:54:22.862Z,7.37
2017-11-12T07:56:50.526Z,7.00
2017-11-12T07:59:18.125Z,8.30
2017-11-12T08:01:46.506Z,10.60
2017-11-12T08:04:15.054Z,8.47
2017-11-12T08:06:42.662Z,13.23
2017-11-12T08:09:10.281Z,8.77
2017-11-12T08:11:37.891Z,13.30
2017-11-12T08:14:05.549Z,11.17
2017-11-12T08:16:33.154Z,17.70
2017-11-12T08:19:00.758Z,12.87
2017-11-12T08:21:29.146Z,12.07
2017-11-12T08:23:56.732Z,9.20
2017-11-12T08:26:24.358Z,9.60
2017-11-12T08:28:52.721Z,6.77
2017-11-12T08:31:20.325Z,8.40
2017-11-12T08:33:47.962Z,10.57
2017-11-12T08:36:16.355Z,15.87
2017-11-12T08:38:43.987Z,11.03
2017-11-12T08:41:12.358Z,9.23
2017-11-12T08:43:39.994Z,12.37
2017-11-12T08:46:07.607Z,9.33
2017-11-12T08:48:35.194Z,9.63
2017-11-12T08:51:02.834Z,9.77
2017-11-12T08:53:30.437Z,8.70
2017-11-12T08:55:58.083Z,11.67
2017-11-12T08:58:25.764Z,6.70
2017-11-12T09:00:53.433Z,10.33
2017-11-12T09:03:22.570Z,8.53
2017-11-12T09:05:50.168Z,10.70
2017-11-12T09:08:17.814Z,11.07
2017-11-12T09:10:45.415Z,6.10
2017-11-12T09:13:13.018Z,12.40
2017-11-12T09:15:40.931Z,12.17
2017-11-12T09:18:08.531Z,9.03
2017-11-12T09:20:39.655Z,10.27
2017-11-12T09:23:07.415Z,6.43
2017-11-12T09:25:35.055Z,17.43
2017-11-12T09:28:02.650Z,9.57
2017-11-12T09:30:31.053Z,9.20
2017-11-12T09:32:58.705Z,11.87
2017-11-12T09:35:27.071Z,8.10
2017-11-12T09:37:55.503Z,10.97
2017-11-12T09:40:25.284Z,14.57
2017-11-12T09:42:53.090Z,12.40
2017-11-12T09:45:20.682Z,8.00
2017-11-12T09:47:48.341Z,7.00
2017-11-12T09:50:15.961Z,8.40
2017-11-12T09:52:43.611Z,13.07
2017-11-12T09:55:11.231Z,13.60
2017-11-12T09:57:39.588Z,9.40
2017-11-12T10:00:08.714Z,10.00
2017-11-12T10:02:37.098Z,8.90
2017-11-12T10:05:05.488Z,14.53
2017-11-12T10:07:33.881Z,7.67
2017-11-12T10:10:01.585Z,8.17
2017-11-12T10:12:29.962Z,6.00
2017-11-12T10:14:57.581Z,14.47
2017-11-12T10:17:25.169Z,8.80
2017-11-12T10:19:52.790Z,8.23
2017-11-12T10:22:20.402Z,14.70
2017-11-12T10:24:47.995Z,10.50
2017-11-12T10:27:16.377Z,9.30
2017-11-12T10:29:44.738Z,7.73
2017-11-12T10:32:13.126Z,10.87
2017-11-12T10:34:41.478Z,6.63
2017-11-12T10:37:09.866Z,10.73
2017-11-12T10:39:37.465Z,10.70
2017-11-12T10:42:05.086Z,8.23
2017-11-12T10:44:32.679Z,9.63
2017-11-12T10:47:00.298Z,8.33
2017-11-12T10:49:27.882Z,12.00
2017-11-12T10:51:56.286Z,18.57
2017-11-12T10:54:23.866Z,9.23
2017-11-12T10:56:51.470Z,12.63
2017-11-12T10:59:19.091Z,19.87
2017-11-12T11:01:46.684Z,16.60
2017-11-12T11:04:14.310Z,14.07
2017-11-12T11:06:41.906Z,11.40
2017-11-12T11:09:09.501Z,12.03
2017-11-12T11:11:37.917Z,16.60
2017-11-12T11:14:05.517Z,13.13
2017-11-12T11:16:33.167Z,11.50
2017-11-12T11:19:01.523Z,8.60
2017-11-12T11:21:29.109Z,10.40
2017-11-12T11:23:56.730Z,12.03
2017-11-12T11:26:24.330Z,11.57
2017-11-12T11:28:52.739Z,14.53
2017-11-12T11:31:21.103Z,16.13
2017-11-12T11:33:49.464Z,9.30
2017-11-12T11:36:17.094Z,13.27
2017-11-12T11:38:44.698Z,12.37
2017-11-12T11:41:13.085Z,14.43
2017-11-12T11:43:41.442Z,10.23
2017-11-12T11:46:09.813Z,11.60
2017-11-12T11:48:37.434Z,15.40
2017-11-12T11:51:05.027Z,15.03
2017-11-12T11:53:32.673Z,11.77
2017-11-12T11:56:00.273Z,14.90
2017-11-12T11:58:28.690Z,8.53
2017-11-12T12:00:56.319Z,9.77
2017-11-12T12:03:24.692Z,11.00
2017-11-12T12:05:53.107Z,12.87
2017-11-12T12:08:20.742Z,9.77
2017-11-12T12:10:49.145Z,15.33
2017-11-12T12:13:16.742Z,11.20
2017-11-12T12:15:44.347Z,10.53
2017-11-12T12:18:12.738Z,8.97
2017-11-12T12:20:40.337Z,7.80
2017-11-12T12:23:07.962Z,9.70
2017-11-12T12:25:35.565Z,12.80
2017-11-12T12:28:03.183Z,14.37
2017-11-12T12:30:30.808Z,18.40
2017-11-12T12:32:58.541Z,9.80
2017-11-12T12:35:26.170Z,9.37
2017-11-12T12:37:53.779Z,9.17
2017-11-12T12:40:21.390Z,11.00
2017-11-12T12:42:49.035Z,10.23
2017-11-12T12:45:17.397Z,11.97
2017-11-12T12:47:45.034Z,14.30
2017-11-12T12:50:12.654Z,11.00
2017-11-12T12:52:40.291Z,23.60
2017-11-12T12:55:08.656Z,9.90
2017-11-12T12:57:36.255Z,7.87
2017-11-12T13:00:04.619Z,9.17
2017-11-12T13:02:32.286Z,13.30
2017-11-12T13:05:00.692Z,10.30
2017-11-12T13:07:28.304Z,7.00
2017-11-12T13:09:55.895Z,9.87
2017-11-12T13:12:23.535Z,7.90
2017-11-12T13:14:52.185Z,11.40
2017-11-12T13:17:20.163Z,10.30
2017-11-12T13:19:48.021Z,10.43
2017-11-12T13:22:15.896Z,10.73
2017-11-12T13:24:43.817Z,10.47
2017-11-12T13:27:11.729Z,10.67
2017-11-12T13:29:41.998Z,12.30
2017-11-12T13:32:09.993Z,11.47
2017-11-12T13:34:37.902Z,16.50
2017-11-12T13:37:06.681Z,9.40
2017-11-12T13:39:34.547Z,13.97
2017-11-12T13:42:02.509Z,12.30
2017-11-12T13:44:30.380Z,10.20
2017-11-12T13:46:58.153Z,11.80
2017-11-12T13:49:26.012Z,11.03
2017-11-12T13:51:53.881Z,11.60
2017-11-12T13:54:21.751Z,7.10
2017-11-12T13:56:50.332Z,11.27
2017-11-12T13:59:18.298Z,11.70
2017-11-12T14:01:46.163Z,12.40
2017-11-12T14:04:14.029Z,15.40
2017-11-12T14:06:41.998Z,11.93
2017-11-12T14:09:09.869Z,12.17
2017-11-12T14:11:37.684Z,10.70
2017-11-12T14:14:05.602Z,19.40
2017-11-12T14:16:33.467Z,15.20
2017-11-12T14:19:01.330Z,14.80
2017-11-12T14:21:29.192Z,12.60
2017-11-12T14:23:56.965Z,15.20
2017-11-12T14:26:24.830Z,12.27
2017-11-12T14:28:52.702Z,15.00
2017-11-12T14:31:20.569Z,12.03
2017-11-12T14:33:48.436Z,6.30
2017-11-12T14:36:16.403Z,7.00
2017-11-12T14:38:44.263Z,17.30
2017-11-12T14:41:12.138Z,12.33
2017-11-12T14:43:40.821Z,7.40
2017-11-12T14:46:11.126Z,7.17
2017-11-12T14:48:41.482Z,14.53
2017-11-12T14:51:11.656Z,9.57
2017-11-12T14:53:42.004Z,9.20
2017-11-12T14:56:12.047Z,17.17
2017-11-12T14:58:42.252Z,16.27
2017-11-12T15:01:13.066Z,14.67
2017-11-12T15:03:43.037Z,9.13
2017-11-12T15:06:13.061Z,16.97
2017-11-12T15:08:43.581Z,18.80
2017-11-12T15:11:13.481Z,11.03
2017-11-12T15:13:43.949Z,12.00
2017-11-12T15:16:14.115Z,8.80
2017-11-12T15:18:44.492Z,11.00
2017-11-12T15:21:15.474Z,10.07
2017-11-12T15:23:45.781Z,9.17
2017-11-12T15:26:15.515Z,11.20
2017-11-12T15:28:46.450Z,9.93
2017-11-12T15:31:17.253Z,13.27
2017-11-12T15:33:48.920Z,8.33
2017-11-12T15:36:18.946Z,8.97
2017-11-12T15:38:47.657Z,9.90
2017-11-12T15:41:15.471Z,10.90
2017-11-12T15:43:43.256Z,16.10
2017-11-12T15:46:11.064Z,19.90
2017-11-12T15:48:38.859Z,14.50
2017-11-12T15:51:06.680Z,14.17
2017-11-12T15:53:34.458Z,14.73
2017-11-12T15:56:02.293Z,26.37
2017-11-12T15:58:30.068Z,21.10
2017-11-12T16:00:57.833Z,16.73
2017-11-12T16:03:25.478Z,22.10
2017-11-12T16:05:53.855Z,18.40
2017-11-12T16:08:21.487Z,13.60
2017-11-12T16:10:49.087Z,12.63
2017-11-12T16:13:16.718Z,14.97
2017-11-12T16:15:44.322Z,15.80
2017-11-12T16:18:11.950Z,12.00
2017-11-12T16:20:39.545Z,13.17
2017-11-12T16:23:07.182Z,11.30
2017-11-12T16:25:34.947Z,18.37
2017-11-12T16:28:02.552Z,18.63
2017-11-12T16:30:30.958Z,12.73
2017-11-12T16:32:58.580Z,31.77
2017-11-12T16:35:26.210Z,20.00
2017-11-12T16:37:53.807Z,20.03
2017-11-12T16:40:21.407Z,14.47
2017-11-12T16:42:49.034Z,13.63
2017-11-12T16:45:17.403Z,16.47
2017-11-12T16:47:45.129Z,9.67
2017-11-12T16:50:12.743Z,15.93
2017-11-12T16:52:41.111Z,16.87
2017-11-12T16:55:09.501Z,15.93
2017-11-12T16:57:37.859Z,16.53
2017-11-12T17:00:06.294Z,21.03
2017-11-12T17:02:33.877Z,10.87
2017-11-12T17:05:01.462Z,15.30
2017-11-12T17:07:29.861Z,17.60
2017-11-12T17:09:57.460Z,13.50
2017-11-12T17:12:25.091Z,23.87
2017-11-12T17:14:52.681Z,20.87
2017-11-12T17:17:20.274Z,18.63
2017-11-12T17:19:47.904Z,17.50
2017-11-12T17:22:15.505Z,16.27
2017-11-12T17:24:43.152Z,16.80
2017-11-12T17:27:10.741Z,11.33
2017-11-12T17:29:39.273Z,22.23
2017-11-12T17:32:06.910Z,15.33
2017-11-12T17:34:34.510Z,18.77
2017-11-12T17:37:02.282Z,15.40
2017-11-12T17:39:33.679Z,18.47
2017-11-12T17:42:04.216Z,15.73
2017-11-12T17:44:31.963Z,23.97
2017-11-12T17:46:59.583Z,14.33
2017-11-12T17:49:27.993Z,18.43
2017-11-12T17:51:56.359Z,15.07
2017-11-12T17:54:24.786Z,15.67
2017-11-12T17:56:52.383Z,12.37
2017-11-12T17:59:20.055Z,12.73
2017-11-12T18:01:47.687Z,19.10
2017-11-12T18:04:15.282Z,26.97
2017-11-12T18:06:42.916Z,19.60
2017-11-12T18:09:10.511Z,16.80
2017-11-12T18:11:39.455Z,28.93
2017-11-12T18:14:07.089Z,22.53
2017-11-12T18:16:36.040Z,19.30
2017-11-12T18:19:03.703Z,11.10
2017-11-12T18:21:32.077Z,15.90
2017-11-12T18:24:01.182Z,24.93
2017-11-12T18:26:29.583Z,21.10
2017-11-12T18:28:57.938Z,16.87
2017-11-12T18:31:25.571Z,19.97
2017-11-12T18:33:53.453Z,13.60
2017-11-12T18:36:21.717Z,17.97
2017-11-12T18:38:49.501Z,13.23
2017-11-12T18:41:17.107Z,11.63
2017-11-12T18:43:44.745Z,15.70
2017-11-12T18:46:13.118Z,31.70
2017-11-12T18:48:41.498Z,18.27
2017-11-12T18:51:12.422Z,22.80
2017-11-12T18:53:40.979Z,15.47
2017-11-12T18:56:08.618Z,19.47
2017-11-12T18:58:46.135Z,17.73
2017-11-12T19:01:17.442Z,23.33
2017-11-12T19:03:51.757Z,14.07
2017-11-12T19:09:19.805Z,17.17
2017-11-12T19:11:47.593Z,19.50
2017-11-12T19:14:16.140Z,22.80
2017-11-12T19:16:44.008Z,22.83
2017-11-12T19:19:12.572Z,17.63
2017-11-12T19:21:41.175Z,28.03
2017-11-12T19:24:09.570Z,18.90
2017-11-12T19:26:38.745Z,19.43
2017-11-12T19:29:09.089Z,15.80
2017-11-12T19:31:36.742Z,14.50
2017-11-12T19:34:04.334Z,13.97
2017-11-12T19:36:32.739Z,18.57
2017-11-12T19:39:00.647Z,16.30
2017-11-12T19:41:28.361Z,23.10
2017-11-12T19:43:56.091Z,23.87
2017-11-12T19:46:23.858Z,24.63
2017-11-12T19:48:51.597Z,21.33
2017-11-12T19:51:19.360Z,22.63
2017-11-12T19:53:47.127Z,19.73
2017-11-12T19:56:14.893Z,23.93
2017-11-12T19:58:42.653Z,24.10
2017-11-12T20:01:10.418Z,24.83
2017-11-12T20:03:38.207Z,23.00
2017-11-12T20:06:05.903Z,22.90
2017-11-12T20:08:33.577Z,33.43
2017-11-12T20:11:01.296Z,19.67
2017-11-12T20:13:29.753Z,22.57
2017-11-12T20:15:57.429Z,20.23
2017-11-12T20:18:25.206Z,16.50
2017-11-12T20:20:53.045Z,21.60
2017-11-12T20:23:20.737Z,17.00
2017-11-12T20:25:48.573Z,21.37
2017-11-12T20:28:16.273Z,17.07
2017-11-12T20:30:44.821Z,22.53
2017-11-12T20:33:12.585Z,15.37
2017-11-12T20:35:40.349Z,17.07
2017-11-12T20:38:08.143Z,14.30
2017-11-12T20:40:35.881Z,17.00
2017-11-12T20:43:03.479Z,15.70
2017-11-12T20:45:31.877Z,14.73
2017-11-12T20:47:59.691Z,18.70
2017-11-12T20:50:27.551Z,13.73
2017-11-12T20:52:55.222Z,15.30
2017-11-12T20:55:23.006Z,16.20
2017-11-12T20:57:51.660Z,15.37
2017-11-12T21:00:19.442Z,12.00
2017-11-12T21:02:47.224Z,14.47
2017-11-12T21:05:26.636Z,17.57
2017-11-12T21:07:54.432Z,13.17
2017-11-12T21:10:22.895Z,13.20
2017-11-12T21:12:50.653Z,15.80
2017-11-12T21:15:18.361Z,16.80
2017-11-12T21:17:46.064Z,13.40
2017-11-12T21:23:18.875Z,13.50
2017-11-12T21:25:47.295Z,15.80
2017-11-12T21:31:17.031Z,15.43
2017-11-12T21:36:50.201Z,11.53
2017-11-12T21:39:18.172Z,20.77
2017-11-12T21:41:46.024Z,13.43
2017-11-12T21:44:13.900Z,18.27
2017-11-12T21:46:41.610Z,15.63
2017-11-12T21:49:09.418Z,12.00
2017-11-12T21:51:37.059Z,19.53
2017-11-12T21:54:04.847Z,18.07
2017-11-12T21:56:32.605Z,14.43
2017-11-12T21:59:00.295Z,14.87
2017-11-12T22:01:27.972Z,14.83
2017-11-12T22:03:56.378Z,14.23
2017-11-12T22:06:24.177Z,19.27
2017-11-12T22:08:51.857Z,14.60
2017-11-12T22:11:19.606Z,17.30
2017-11-12T22:13:47.365Z,13.20
2017-11-12T22:16:15.132Z,15.97
2017-11-12T22:18:42.893Z,13.10
2017-11-12T22:21:10.527Z,15.23
2017-11-12T22:23:38.162Z,17.97
2017-11-12T22:26:06.559Z,17.43
2017-11-12T22:28:34.170Z,13.50
2017-11-12T22:31:01.802Z,20.73
2017-11-12T22:33:29.398Z,15.07
2017-11-12T22:35:57.026Z,15.33
2017-11-12T22:38:24.618Z,14.60
2017-11-12T22:40:52.212Z,11.47
2017-11-12T22:43:20.599Z,15.40
2017-11-12T22:45:48.194Z,18.60
2017-11-12T22:48:15.818Z,13.47
2017-11-12T22:50:43.419Z,13.60
2017-11-12T22:53:11.040Z,12.37
2017-11-12T22:55:38.657Z,16.53
2017-11-12T22:58:06.250Z,11.13
2017-11-12T23:00:34.670Z,15.77
2017-11-12T23:03:02.275Z,13.30
2017-11-12T23:05:30.637Z,20.90
2017-11-12T23:07:58.262Z,15.77
2017-11-12T23:10:25.863Z,13.07
2017-11-12T23:12:53.490Z,12.93
2017-11-12T23:15:21.087Z,12.37
2017-11-12T23:17:48.686Z,24.40
2017-11-12T23:20:16.311Z,16.73
2017-11-12T23:22:43.905Z,18.20
2017-11-12T23:25:11.526Z,12.13
2017-11-12T23:27:39.125Z,13.43
2017-11-12T23:30:06.842Z,14.87
2017-11-12T23:32:34.490Z,15.20
2017-11-12T23:35:02.089Z,16.20
2017-11-12T23:37:30.483Z,17.33
2017-11-12T23:39:58.837Z,11.83
2017-11-12T23:42:26.429Z,13.70
2017-11-12T23:44:54.050Z,15.73
2017-11-12T23:47:21.642Z,18.33
2017-11-12T23:49:50.038Z,13.60
2017-11-12T23:52:17.626Z,16.73
2017-11-12T23:54:45.213Z,13.83
2017-11-12T23:57:12.826Z,10.30
2017-11-12T23:59:40.434Z,15.70
